SWTO2: Sweetwater Creek Near Sweetwater, OK

Data processed at Wed May 22 2019 23:50


All information presented herein is the property of the government of the United States of America and may be revised or deleted at any time without prior notice.
Dissemination of this information without the expressed written consent of the Public Affairs Office, Tulsa District U.S. Army Corps of Engineers is strictly prohibited.
These data are gathered electronically and, as presented, have not undergone any form of quality control. These data are not guaranteed to be valid or correct.
Go to home page.
Go to station list.
Go to home page.

Upstream stations:

Downstream station:
Previous Day
Next Day
Current Day
    
SHEF ID:       SWTO2     Sweetwater Creek near Sweetwater
STATION TYPE:  

               PRECIP     STAGE  RIV-FLOW  BAT-LOAD
                   in        ft       cfs      volt
              Ccp-Rev   Ccp-Rev   Ccp-Rev   Ccp-Rev
(US/Central)
05/22 00:00      0.00     10.02       171     12.73
05/22 01:00      0.00     10.07       175     12.73
05/22 02:00      0.00     10.11       179     12.65
05/22 03:00      0.00     10.14       182     12.65
05/22 04:00      0.00     10.19       186     12.65
05/22 05:00      0.00     10.24       191     12.65
05/22 06:00      0.00     10.26       193     12.65
05/22 07:00      0.00     10.25       192     12.57
05/22 08:00      0.00     10.26       193     12.57
05/22 09:00      0.00     10.26       193     12.57
05/22 10:00      0.00     10.29       196     12.65
05/22 11:00      0.00     10.31       198     12.73
05/22 12:00      0.00     10.35       202     12.89
05/22 13:00      0.00     10.37       203     12.97
05/22 14:00      0.00     10.38       204     12.97
05/22 15:00      0.00     10.37       203     13.05
05/22 16:00      0.00     10.35       202     13.29
05/22 17:00      0.00     10.30       197     13.29
05/22 18:00      0.00     10.22       189     13.53
05/22 19:00      0.00     10.10       178     13.53
05/22 20:00      0.00      9.98       167     13.21
05/22 21:00      0.00      9.87       158     12.89
05/22 22:00      0.00      9.76       148     12.81
05/22 23:00      0.00      9.66       140     12.73